createdAt,value
2022-11-10T00:03:36.294Z,100.00
2022-11-10T00:07:38.404Z,100.00
2022-11-10T00:11:40.189Z,100.00
2022-11-10T00:16:00.465Z,100.00
2022-11-10T00:20:02.220Z,100.00
2022-11-10T00:24:03.776Z,100.00
2022-11-10T00:28:05.214Z,100.00
2022-11-10T00:36:34.843Z,100.00
2022-11-10T00:40:36.329Z,100.00
2022-11-10T00:44:37.661Z,100.00
2022-11-10T00:48:38.969Z,100.00
2022-11-10T00:52:58.844Z,100.00
2022-11-10T00:57:20.450Z,100.00
2022-11-10T01:01:24.968Z,100.00
2022-11-10T01:05:26.292Z,100.00
2022-11-10T01:09:27.543Z,100.00
2022-11-10T01:13:29.348Z,100.00
2022-11-10T01:17:30.787Z,100.00
2022-11-10T01:21:32.087Z,100.00
2022-11-10T01:25:33.412Z,100.00
2022-11-10T01:29:34.740Z,100.00
2022-11-10T01:33:36.640Z,100.00
2022-11-10T01:37:38.039Z,100.00
2022-11-10T01:41:39.484Z,100.00
2022-11-10T01:45:46.518Z,100.00
2022-11-10T01:49:48.026Z,100.00
2022-11-10T01:53:51.140Z,100.00
2022-11-10T01:57:52.787Z,100.00
2022-11-10T02:01:56.375Z,100.00
2022-11-10T02:05:58.652Z,100.00
2022-11-10T02:10:02.000Z,100.00
2022-11-10T02:14:03.533Z,100.00
2022-11-10T02:18:04.857Z,100.00
2022-11-10T02:22:06.220Z,100.00
2022-11-10T02:26:07.649Z,100.00
2022-11-10T02:30:09.164Z,100.00
2022-11-10T02:34:10.655Z,100.00
2022-11-10T02:38:12.303Z,100.00
2022-11-10T02:42:13.551Z,100.00
2022-11-10T02:46:15.707Z,100.00
2022-11-10T02:50:17.116Z,100.00
2022-11-10T02:54:18.468Z,100.00
2022-11-10T02:58:19.728Z,100.00
2022-11-10T03:02:21.087Z,100.00
2022-11-10T03:06:22.314Z,100.00
2022-11-10T03:10:24.309Z,100.00
2022-11-10T03:14:25.559Z,100.00
2022-11-10T03:18:27.384Z,100.00
2022-11-10T03:22:28.624Z,100.00
2022-11-10T03:26:29.899Z,100.00
2022-11-10T03:30:31.367Z,100.00
2022-11-10T03:34:32.657Z,100.00
2022-11-10T03:38:33.904Z,100.00
2022-11-10T03:42:35.169Z,100.00
2022-11-10T03:46:36.447Z,100.00
2022-11-10T03:50:37.725Z,100.00
2022-11-10T03:54:38.964Z,100.00
2022-11-10T03:58:40.523Z,100.00
2022-11-10T04:02:41.880Z,100.00
2022-11-10T04:07:02.020Z,100.00
2022-11-10T04:11:03.484Z,100.00
2022-11-10T04:15:24.287Z,100.00
2022-11-10T04:19:25.856Z,100.00
2022-11-10T04:23:31.652Z,100.00
2022-11-10T04:27:32.928Z,100.00
2022-11-10T04:31:37.276Z,100.00
2022-11-10T04:35:38.594Z,100.00
2022-11-10T04:39:40.043Z,100.00
2022-11-10T04:43:41.723Z,100.00
2022-11-10T04:47:43.009Z,100.00
2022-11-10T04:51:44.269Z,100.00
2022-11-10T04:55:46.135Z,100.00
2022-11-10T04:59:47.367Z,100.00
2022-11-10T05:03:49.263Z,100.00
2022-11-10T05:07:50.597Z,100.00
2022-11-10T05:11:51.857Z,100.00
2022-11-10T05:15:53.319Z,100.00
2022-11-10T05:19:54.856Z,100.00
2022-11-10T05:23:56.087Z,100.00
2022-11-10T05:27:57.604Z,100.00
2022-11-10T05:31:58.861Z,100.00
2022-11-10T05:36:01.043Z,100.00
2022-11-10T05:40:02.625Z,100.00
2022-11-10T05:44:04.248Z,100.00
2022-11-10T05:48:05.611Z,100.00
2022-11-10T05:52:06.903Z,100.00
2022-11-10T05:56:08.223Z,100.00
2022-11-10T06:00:10.084Z,100.00
2022-11-10T06:04:11.310Z,100.00
2022-11-10T06:08:13.280Z,100.00
2022-11-10T06:12:14.988Z,100.00
2022-11-10T06:16:16.450Z,100.00
2022-11-10T06:20:18.206Z,100.00
2022-11-10T06:24:19.799Z,100.00
2022-11-10T06:28:21.066Z,100.00
2022-11-10T06:32:22.383Z,100.00
2022-11-10T06:36:23.736Z,100.00
2022-11-10T06:40:25.422Z,100.00
2022-11-10T06:44:26.827Z,100.00
2022-11-10T06:48:28.150Z,100.00
2022-11-10T06:52:31.470Z,100.00
2022-11-10T06:56:32.792Z,100.00
2022-11-10T07:00:34.027Z,100.00
2022-11-10T07:04:35.357Z,100.00
2022-11-10T07:08:36.690Z,100.00
2022-11-10T07:12:38.037Z,100.00
2022-11-10T07:16:39.303Z,100.00
2022-11-10T07:20:41.028Z,100.00
2022-11-10T07:24:42.340Z,100.00
2022-11-10T07:28:43.947Z,100.00
2022-11-10T07:32:45.179Z,100.00
2022-11-10T07:36:46.607Z,100.00
2022-11-10T07:40:50.739Z,100.00
2022-11-10T07:44:52.004Z,100.00
2022-11-10T07:48:53.506Z,100.00
2022-11-10T07:53:05.097Z,100.00
2022-11-10T07:57:06.582Z,100.00
2022-11-10T08:01:07.900Z,100.00
2022-11-10T08:05:09.264Z,100.00
2022-11-10T08:09:10.547Z,100.00
2022-11-10T08:13:13.136Z,100.00
2022-11-10T08:17:15.125Z,100.00
2022-11-10T08:21:16.417Z,100.00
2022-11-10T08:25:17.722Z,100.00
2022-11-10T08:29:18.957Z,100.00
2022-11-10T08:33:22.141Z,100.00
2022-11-10T08:37:24.190Z,100.00
2022-11-10T08:41:25.599Z,100.00
2022-11-10T08:45:27.220Z,100.00
2022-11-10T08:49:28.937Z,100.00
2022-11-10T08:53:30.229Z,100.00
2022-11-10T08:57:31.581Z,100.00
2022-11-10T09:01:32.894Z,100.00
2022-11-10T09:05:36.993Z,100.00
2022-11-10T09:09:38.264Z,100.00
2022-11-10T09:13:39.872Z,100.00
2022-11-10T09:17:41.535Z,100.00
2022-11-10T09:21:42.856Z,100.00
2022-11-10T09:25:49.032Z,100.00
2022-11-10T09:29:50.821Z,100.00
2022-11-10T09:33:52.073Z,100.00
2022-11-10T09:37:53.540Z,100.00
2022-11-10T09:41:54.856Z,100.00
2022-11-10T09:45:57.815Z,100.00
2022-11-10T09:50:00.914Z,100.00
2022-11-10T09:54:04.394Z,100.00
2022-11-10T09:58:05.815Z,100.00
2022-11-10T10:02:09.948Z,100.00
2022-11-10T10:06:12.783Z,100.00
2022-11-10T10:10:17.883Z,99.92
2022-11-10T10:14:38.215Z,100.00
2022-11-10T10:18:39.560Z,99.59
2022-11-10T10:22:59.845Z,100.00
2022-11-10T10:27:04.682Z,100.00
2022-11-10T10:31:18.616Z,100.00
2022-11-10T10:35:20.582Z,99.89
2022-11-10T10:39:21.866Z,99.38
2022-11-10T10:43:23.677Z,98.99
2022-11-10T10:47:36.153Z,99.34
2022-11-10T10:51:37.718Z,98.14
2022-11-10T10:55:39.671Z,98.00
2022-11-10T10:59:41.040Z,97.57
2022-11-10T11:03:43.879Z,98.41
2022-11-10T11:07:55.790Z,97.87
2022-11-10T11:12:02.047Z,97.78
2022-11-10T11:16:05.662Z,97.33
2022-11-10T11:20:14.107Z,97.28
2022-11-10T11:24:30.724Z,96.92
2022-11-10T11:28:40.852Z,97.13
2022-11-10T11:32:54.754Z,96.91
2022-11-10T11:36:56.073Z,96.92
2022-11-10T11:41:16.231Z,97.33
2022-11-10T11:45:17.553Z,97.51
2022-11-10T11:49:21.919Z,97.01
2022-11-10T11:53:26.273Z,97.01
2022-11-10T11:57:34.415Z,96.01
2022-11-10T12:01:38.390Z,95.66
2022-11-10T12:05:58.574Z,95.52
2022-11-10T12:10:15.269Z,95.30
2022-11-10T12:14:31.746Z,95.70
2022-11-10T12:18:38.412Z,96.32
2022-11-10T12:22:42.755Z,96.05
2022-11-10T12:26:55.661Z,95.71
2022-11-10T12:31:01.950Z,95.87
2022-11-10T12:35:21.467Z,95.66
2022-11-10T12:39:38.030Z,94.88
2022-11-10T12:43:56.533Z,94.33
2022-11-10T12:47:59.029Z,93.48
2022-11-10T12:52:09.008Z,94.14
2022-11-10T12:56:17.731Z,94.19
2022-11-10T13:00:22.523Z,94.69
2022-11-10T13:04:29.729Z,94.66
2022-11-10T13:08:33.212Z,94.87
2022-11-10T13:12:34.625Z,94.73
2022-11-10T13:16:38.824Z,95.13
2022-11-10T13:20:50.811Z,95.06
2022-11-10T13:24:52.479Z,94.55
2022-11-10T13:28:58.252Z,94.94
2022-11-10T13:33:19.487Z,94.51
2022-11-10T13:37:30.118Z,93.96
2022-11-10T13:41:33.292Z,93.65
2022-11-10T13:45:40.926Z,93.87
2022-11-10T13:49:51.445Z,93.95
2022-11-10T13:54:05.810Z,94.34
2022-11-10T13:58:11.996Z,94.49
2022-11-10T14:02:34.303Z,94.67
2022-11-10T14:06:40.406Z,93.85
2022-11-10T14:10:44.790Z,93.25
2022-11-10T14:14:49.362Z,93.17
2022-11-10T14:19:00.239Z,92.78
2022-11-10T14:23:05.021Z,91.95
2022-11-10T14:27:08.312Z,91.88
2022-11-10T14:31:16.228Z,92.06
2022-11-10T14:35:22.479Z,92.05
2022-11-10T14:39:27.959Z,92.84
2022-11-10T14:43:37.433Z,93.77
2022-11-10T14:47:38.939Z,93.59
2022-11-10T14:51:40.505Z,92.52
2022-11-10T14:55:44.051Z,92.87
2022-11-10T14:59:46.010Z,93.67
2022-11-10T15:03:47.908Z,93.76
2022-11-10T15:07:52.811Z,93.20
2022-11-10T15:12:06.212Z,93.19
2022-11-10T15:16:26.353Z,92.81
2022-11-10T15:20:27.628Z,93.29
2022-11-10T15:24:29.384Z,93.89
2022-11-10T15:28:32.027Z,93.78
2022-11-10T15:32:43.854Z,93.24
2022-11-10T15:36:45.319Z,93.30
2022-11-10T15:40:47.642Z,93.77
2022-11-10T15:44:48.948Z,94.42
2022-11-10T15:48:51.406Z,93.83
2022-11-10T15:52:52.705Z,94.29
2022-11-10T15:56:54.064Z,94.71
2022-11-10T16:00:55.370Z,94.93
2022-11-10T16:04:59.990Z,95.25
2022-11-10T16:09:01.610Z,95.20
2022-11-10T16:13:03.541Z,94.97
2022-11-10T16:17:05.817Z,95.13
2022-11-10T16:21:14.730Z,94.74
2022-11-10T16:25:23.787Z,95.84
2022-11-10T16:29:28.283Z,95.64
2022-11-10T16:33:29.652Z,96.59
2022-11-10T16:37:34.840Z,96.85
2022-11-10T16:41:36.627Z,96.90
2022-11-10T16:45:42.000Z,97.21
2022-11-10T16:49:44.940Z,97.10
2022-11-10T16:53:46.921Z,97.44
2022-11-10T16:57:48.660Z,97.24
2022-11-10T17:01:50.394Z,97.89
2022-11-10T17:05:52.035Z,97.59
2022-11-10T17:09:53.748Z,98.01
2022-11-10T17:13:55.308Z,98.15
2022-11-10T17:17:58.861Z,98.23
2022-11-10T17:22:02.314Z,98.53
2022-11-10T17:26:03.804Z,98.80
2022-11-10T17:30:05.493Z,99.30
2022-11-10T17:34:06.819Z,99.59
2022-11-10T17:38:10.767Z,99.53
2022-11-10T17:42:13.499Z,99.63
2022-11-10T17:46:15.240Z,100.00
2022-11-10T17:50:17.599Z,100.00
2022-11-10T17:54:18.895Z,100.00
2022-11-10T17:58:20.722Z,100.00
2022-11-10T18:02:21.981Z,100.00
2022-11-10T18:06:23.308Z,100.00
2022-11-10T18:10:24.655Z,100.00
2022-11-10T18:14:26.228Z,100.00
2022-11-10T18:18:27.540Z,100.00
2022-11-10T18:22:28.944Z,100.00
2022-11-10T18:26:30.196Z,100.00
2022-11-10T18:30:35.091Z,100.00
2022-11-10T18:34:36.727Z,100.00
2022-11-10T18:38:38.137Z,100.00
2022-11-10T18:42:39.452Z,100.00
2022-11-10T18:46:41.820Z,100.00
2022-11-10T18:50:43.859Z,100.00
2022-11-10T18:54:53.580Z,100.00
2022-11-10T18:58:56.964Z,100.00
2022-11-10T19:02:59.210Z,100.00
2022-11-10T19:07:00.747Z,100.00
2022-11-10T19:11:05.676Z,100.00
2022-11-10T19:15:08.056Z,100.00
2022-11-10T19:19:10.028Z,100.00
2022-11-10T19:23:11.324Z,100.00
2022-11-10T19:27:13.808Z,100.00
2022-11-10T19:31:16.467Z,100.00
2022-11-10T19:35:17.907Z,100.00
2022-11-10T19:39:19.281Z,99.62
2022-11-10T19:43:21.127Z,99.53
2022-11-10T19:47:22.784Z,100.00
2022-11-10T19:51:24.679Z,99.75
2022-11-10T19:55:25.972Z,99.19
2022-11-10T19:59:27.275Z,99.67
2022-11-10T20:03:29.219Z,99.95
2022-11-10T20:07:49.787Z,100.00
2022-11-10T20:11:51.133Z,99.78
2022-11-10T20:15:53.758Z,100.00
2022-11-10T20:19:55.329Z,100.00
2022-11-10T20:23:58.704Z,99.85
2022-11-10T20:28:06.174Z,100.00
2022-11-10T20:32:07.961Z,100.00
2022-11-10T20:36:20.392Z,100.00
2022-11-10T20:40:43.460Z,100.00
2022-11-10T20:44:43.518Z,100.00
2022-11-10T20:48:45.791Z,100.00
2022-11-10T20:52:47.132Z,100.00
2022-11-10T20:56:48.478Z,100.00
2022-11-10T21:00:49.949Z,100.00
2022-11-10T21:04:51.348Z,100.00
2022-11-10T21:08:53.455Z,100.00
2022-11-10T21:12:54.746Z,100.00
2022-11-10T21:16:57.875Z,100.00
2022-11-10T21:20:59.336Z,100.00
2022-11-10T21:25:00.688Z,100.00
2022-11-10T21:29:02.398Z,100.00
2022-11-10T21:33:04.949Z,100.00
2022-11-10T21:37:06.534Z,100.00
2022-11-10T21:41:07.881Z,100.00
2022-11-10T21:45:09.841Z,100.00
2022-11-10T21:49:11.207Z,100.00
2022-11-10T21:53:12.515Z,100.00
2022-11-10T21:57:13.934Z,100.00
2022-11-10T22:01:19.178Z,100.00
2022-11-10T22:05:20.608Z,100.00
2022-11-10T22:09:41.870Z,100.00
2022-11-10T22:14:01.732Z,100.00
2022-11-10T22:18:22.083Z,100.00
2022-11-10T22:22:23.343Z,100.00
2022-11-10T22:26:24.790Z,100.00
2022-11-10T22:30:26.044Z,100.00
2022-11-10T22:34:27.809Z,100.00
2022-11-10T22:38:29.934Z,100.00
2022-11-10T22:42:50.666Z,100.00
2022-11-10T22:46:52.262Z,100.00
2022-11-10T22:50:56.967Z,100.00
2022-11-10T22:54:58.393Z,100.00
2022-11-10T22:59:00.415Z,100.00
2022-11-10T23:03:01.812Z,100.00
2022-11-10T23:07:03.137Z,100.00
2022-11-10T23:11:06.004Z,100.00
2022-11-10T23:15:07.737Z,100.00
2022-11-10T23:19:09.973Z,100.00
2022-11-10T23:23:11.340Z,100.00
2022-11-10T23:27:12.607Z,100.00
2022-11-10T23:31:15.292Z,100.00
2022-11-10T23:35:16.645Z,100.00
2022-11-10T23:39:19.104Z,100.00
2022-11-10T23:43:20.887Z,100.00
2022-11-10T23:47:22.484Z,100.00
2022-11-10T23:51:25.647Z,100.00
2022-11-10T23:55:26.961Z,100.00
2022-11-10T23:59:28.265Z,100.00
